SAMM/LGS METAR and TAF weather

Enter ICAO airport designator
Station Type Date Time Source
SAMM METAR 2022/06/21 12:40 UTC NOAA

SAMM 211240Z 00000KT 4000 GS BKN020 OVC050 00/M02 Q1019


Station Type Date Time Source
SAMM Decoded METAR 2022/06/21 12:40 UTC NOAA

Malargue Aerodrome, Argentina (SAMM) 35-30S 069-35W 1425M
Jun 21, 2022 - 08:40 AM EDT / 2022.06.21 1240 UTC
Wind: Calm:0
Visibility: 2 mile(s):0
Sky conditions: overcast
Weather: snow pellets
Temperature: 32 F (0 C)
Dew Point: 28 F (-2 C)
Relative Humidity: 86%
Pressure (altimeter): 30.09 in. Hg (1019 hPa)
ob: SAMM 211240Z 00000KT 4000 GS BKN020 OVC050 00/M02 Q1019
cycle: 12

Station Type Date Time Source
SAMM TAF UTC NOAA

Error!

Example: see airport list